createdAt,value
2022-11-24T00:01:16.480Z,13.55
2022-11-24T00:03:45.820Z,9.20
2022-11-24T00:06:15.630Z,9.10
2022-11-24T00:08:45.859Z,10.23
2022-11-24T00:11:15.956Z,13.35
2022-11-24T00:13:44.724Z,5.80
2022-11-24T00:16:16.252Z,7.38
2022-11-24T00:18:45.700Z,9.63
2022-11-24T00:21:14.070Z,10.45
2022-11-24T00:23:42.285Z,12.27
2022-11-24T00:26:12.348Z,9.38
2022-11-24T00:28:41.804Z,8.13
2022-11-24T00:31:18.928Z,8.30
2022-11-24T00:33:48.094Z,5.53
2022-11-24T00:36:17.026Z,8.55
2022-11-24T00:38:45.600Z,8.40
2022-11-24T00:41:14.121Z,9.18
2022-11-24T00:43:42.160Z,9.35
2022-11-24T00:46:10.375Z,9.68
2022-11-24T00:48:39.884Z,10.18
2022-11-24T00:51:10.397Z,14.63
2022-11-24T00:53:38.757Z,13.23
2022-11-24T00:56:07.328Z,5.60
2022-11-24T00:58:36.277Z,8.10
2022-11-24T01:01:06.064Z,9.00
2022-11-24T01:03:34.972Z,8.23
2022-11-24T01:06:09.994Z,12.82
2022-11-24T01:08:39.356Z,6.43
2022-11-24T01:11:09.200Z,12.73
2022-11-24T01:13:37.689Z,11.20
2022-11-24T01:16:05.940Z,15.15
2022-11-24T01:18:34.128Z,12.88
2022-11-24T01:21:09.816Z,9.10
2022-11-24T01:23:40.150Z,17.60
2022-11-24T01:26:09.371Z,12.02
2022-11-24T01:28:40.661Z,19.77
2022-11-24T01:31:13.381Z,17.55
2022-11-24T01:33:41.516Z,22.60
2022-11-24T01:36:09.855Z,14.38
2022-11-24T01:38:39.201Z,9.73
2022-11-24T01:41:11.329Z,17.77
2022-11-24T01:43:40.030Z,15.95
2022-11-24T01:46:17.318Z,12.75
2022-11-24T01:48:48.147Z,12.68
2022-11-24T01:51:21.462Z,11.13
2022-11-24T01:53:55.192Z,5.78
2022-11-24T01:56:23.593Z,12.68
2022-11-24T01:58:54.835Z,15.57
2022-11-24T02:01:23.051Z,9.98
2022-11-24T02:03:52.200Z,12.10
2022-11-24T02:06:24.490Z,4.70
2022-11-24T02:08:59.512Z,12.52
2022-11-24T02:11:31.677Z,13.98
2022-11-24T02:13:59.941Z,7.03
2022-11-24T02:16:28.326Z,11.85
2022-11-24T02:18:56.841Z,18.23
2022-11-24T02:21:25.074Z,10.80
2022-11-24T02:24:02.795Z,7.93
2022-11-24T02:26:40.063Z,8.85
2022-11-24T02:29:09.574Z,15.75
2022-11-24T02:31:37.833Z,10.85
2022-11-24T02:34:05.985Z,13.32
2022-11-24T02:36:34.054Z,8.13
2022-11-24T02:39:02.079Z,17.23
2022-11-24T02:41:30.563Z,18.73
2022-11-24T02:44:03.226Z,11.60
2022-11-24T02:46:31.368Z,13.20
2022-11-24T02:48:59.484Z,35.78
2022-11-24T02:51:27.965Z,9.32
2022-11-24T02:53:56.181Z,13.48
2022-11-24T02:56:24.244Z,11.50
2022-11-24T02:58:52.513Z,14.13
2022-11-24T03:01:22.622Z,22.63
2022-11-24T03:03:50.753Z,14.70
2022-11-24T03:06:18.747Z,16.58
2022-11-24T03:08:46.745Z,12.20
2022-11-24T03:11:14.835Z,9.68
2022-11-24T03:13:42.833Z,13.10
2022-11-24T03:16:11.517Z,10.93
2022-11-24T03:18:40.963Z,13.77
2022-11-24T03:21:09.100Z,20.48
2022-11-24T03:23:37.159Z,19.35
2022-11-24T03:26:09.647Z,17.13
2022-11-24T03:28:37.723Z,19.80
2022-11-24T03:31:06.237Z,20.08
2022-11-24T03:33:35.003Z,19.92
2022-11-24T03:36:04.540Z,24.00
2022-11-24T03:38:32.712Z,15.45
2022-11-24T03:41:01.005Z,29.95
2022-11-24T03:43:29.120Z,19.40
2022-11-24T03:45:57.485Z,21.50
2022-11-24T03:48:25.856Z,11.98
2022-11-24T03:50:55.965Z,20.55
2022-11-24T03:53:27.901Z,17.27
2022-11-24T03:55:56.422Z,12.95
2022-11-24T03:58:25.219Z,37.15
2022-11-24T04:00:54.698Z,17.38
2022-11-24T04:03:23.529Z,9.23
2022-11-24T04:05:52.121Z,16.02
2022-11-24T04:08:20.356Z,18.35
2022-11-24T04:10:53.116Z,11.25
2022-11-24T04:13:22.353Z,21.02
2022-11-24T04:15:50.776Z,15.23
2022-11-24T04:18:19.106Z,17.00
2022-11-24T04:20:49.752Z,13.32
2022-11-24T04:23:17.738Z,15.10
2022-11-24T04:25:45.869Z,12.70
2022-11-24T04:28:15.202Z,16.48
2022-11-24T04:30:44.683Z,13.98
2022-11-24T04:33:13.801Z,15.43
2022-11-24T04:35:41.886Z,14.85
2022-11-24T04:38:10.280Z,18.50
2022-11-24T04:40:38.519Z,16.02
2022-11-24T04:43:06.518Z,12.45
2022-11-24T04:45:35.884Z,11.18
2022-11-24T04:48:04.072Z,14.48
2022-11-24T04:50:32.106Z,20.17
2022-11-24T04:53:00.114Z,19.48
2022-11-24T04:55:28.851Z,23.15
2022-11-24T04:57:56.929Z,12.32
2022-11-24T05:00:25.057Z,15.07
2022-11-24T05:02:54.468Z,12.10
2022-11-24T05:05:22.537Z,14.52
2022-11-24T05:07:50.610Z,21.58
2022-11-24T05:10:37.344Z,12.00
2022-11-24T05:13:07.155Z,9.18
2022-11-24T05:15:38.051Z,12.23
2022-11-24T05:18:08.724Z,10.45
2022-11-24T05:20:36.720Z,20.52
2022-11-24T05:23:05.912Z,10.07
2022-11-24T05:25:34.549Z,14.60
2022-11-24T05:28:03.961Z,18.00
2022-11-24T05:30:32.693Z,14.52
2022-11-24T05:33:05.541Z,13.38
2022-11-24T05:35:35.168Z,8.07
2022-11-24T05:38:04.042Z,20.35
2022-11-24T05:40:32.138Z,17.98
2022-11-24T05:43:00.499Z,9.82
2022-11-24T05:45:28.575Z,19.65
2022-11-24T05:47:56.781Z,11.98
2022-11-24T05:50:24.805Z,12.90
2022-11-24T05:52:54.168Z,17.33
2022-11-24T05:55:22.356Z,24.42
2022-11-24T05:57:50.399Z,12.27
2022-11-24T06:00:20.295Z,10.40
2022-11-24T06:02:49.104Z,16.52
2022-11-24T06:05:17.778Z,12.52
2022-11-24T06:07:46.183Z,11.77
2022-11-24T06:10:17.068Z,22.55
2022-11-24T06:12:45.304Z,11.15
2022-11-24T06:15:14.001Z,14.00
2022-11-24T06:17:42.178Z,17.73
2022-11-24T06:20:11.669Z,15.15
2022-11-24T06:22:40.340Z,9.82
2022-11-24T06:25:09.391Z,12.43
2022-11-24T06:27:38.767Z,15.60
2022-11-24T06:30:07.688Z,9.32
2022-11-24T06:32:35.839Z,12.27
2022-11-24T06:35:04.812Z,14.98
2022-11-24T06:37:32.806Z,9.68
2022-11-24T06:40:00.795Z,9.35
2022-11-24T06:42:29.484Z,13.98
2022-11-24T06:44:58.862Z,13.60
2022-11-24T06:47:26.886Z,12.32
2022-11-24T06:49:54.881Z,13.65
2022-11-24T06:52:22.885Z,6.70
2022-11-24T06:54:51.011Z,10.00
2022-11-24T06:57:19.057Z,11.35
2022-11-24T06:59:47.122Z,16.77
2022-11-24T07:02:16.505Z,9.93
2022-11-24T07:04:44.526Z,18.10
2022-11-24T07:07:12.709Z,13.65
2022-11-24T07:09:40.753Z,8.90
2022-11-24T07:12:09.011Z,10.80
2022-11-24T07:14:37.291Z,9.13
2022-11-24T07:17:05.681Z,14.88
2022-11-24T07:19:35.090Z,11.05
2022-11-24T07:22:03.401Z,18.25
2022-11-24T07:24:31.575Z,10.63
2022-11-24T07:26:59.689Z,10.40
2022-11-24T07:29:27.682Z,10.63
2022-11-24T07:31:57.583Z,14.23
2022-11-24T07:34:27.632Z,10.70
2022-11-24T07:36:58.035Z,6.13
2022-11-24T07:39:26.054Z,8.68
2022-11-24T07:41:54.075Z,10.48
2022-11-24T07:44:22.106Z,6.22
2022-11-24T07:46:51.246Z,7.40
2022-11-24T07:49:19.440Z,8.52
2022-11-24T07:51:47.467Z,13.60
2022-11-24T07:54:16.824Z,7.88
2022-11-24T07:56:45.174Z,11.20
2022-11-24T07:59:13.163Z,17.75
2022-11-24T08:01:41.301Z,11.50
2022-11-24T08:04:09.406Z,8.98
2022-11-24T08:06:40.919Z,7.30
2022-11-24T08:09:11.223Z,10.15
2022-11-24T08:11:40.566Z,8.75
2022-11-24T08:14:08.794Z,13.15
2022-11-24T08:16:36.891Z,18.85
2022-11-24T08:19:05.046Z,9.30
2022-11-24T08:21:33.380Z,6.90
2022-11-24T08:24:01.453Z,12.73
2022-11-24T08:26:29.472Z,8.05
2022-11-24T08:28:59.855Z,8.20
2022-11-24T08:31:33.348Z,10.32
2022-11-24T08:34:03.269Z,13.65
2022-11-24T08:36:31.537Z,9.95
2022-11-24T08:39:00.871Z,8.85
2022-11-24T08:41:30.629Z,8.68
2022-11-24T08:44:00.051Z,6.60
2022-11-24T08:46:28.183Z,14.48
2022-11-24T08:48:56.617Z,10.48
2022-11-24T08:51:26.885Z,13.43
2022-11-24T08:53:55.823Z,12.00
2022-11-24T08:56:23.864Z,14.13
2022-11-24T08:58:52.032Z,14.45
2022-11-24T09:01:21.760Z,9.77
2022-11-24T09:03:51.590Z,13.98
2022-11-24T09:06:22.600Z,10.80
2022-11-24T09:08:51.208Z,15.48
2022-11-24T09:11:19.796Z,11.98
2022-11-24T09:13:47.885Z,5.68
2022-11-24T09:16:18.158Z,11.73
2022-11-24T09:18:48.145Z,13.68
2022-11-24T09:21:18.677Z,7.55
2022-11-24T09:23:48.395Z,10.27
2022-11-24T09:26:19.279Z,8.98
2022-11-24T09:28:48.099Z,10.10
2022-11-24T09:31:18.005Z,8.88
2022-11-24T09:33:47.746Z,12.40
2022-11-24T09:36:16.007Z,9.18
2022-11-24T09:38:44.103Z,14.23
2022-11-24T09:41:32.456Z,8.05
2022-11-24T09:44:08.328Z,11.65
2022-11-24T09:46:43.218Z,11.13
2022-11-24T09:49:16.402Z,8.45
2022-11-24T09:51:48.037Z,10.00
2022-11-24T09:54:20.474Z,7.90
2022-11-24T09:56:51.158Z,8.32
2022-11-24T09:59:21.638Z,6.72
2022-11-24T10:01:51.060Z,6.85
2022-11-24T10:04:23.490Z,6.43
2022-11-24T10:07:00.152Z,6.07
2022-11-24T10:09:50.478Z,10.70
2022-11-24T10:12:30.254Z,7.30
2022-11-24T10:15:24.542Z,7.75
2022-11-24T10:18:22.972Z,8.32
2022-11-24T10:21:03.001Z,6.63
2022-11-24T10:23:47.056Z,9.80
2022-11-24T10:26:19.812Z,11.10
2022-11-24T10:28:53.862Z,6.95
2022-11-24T10:31:31.169Z,6.82
2022-11-24T10:34:03.944Z,8.13
2022-11-24T10:36:43.683Z,13.45
2022-11-24T10:39:16.825Z,9.38
2022-11-24T10:41:51.104Z,4.05
2022-11-24T10:44:19.239Z,9.73
2022-11-24T10:46:47.545Z,6.10
2022-11-24T10:49:20.690Z,8.48
2022-11-24T10:52:01.361Z,5.93
2022-11-24T10:54:29.679Z,7.45
2022-11-24T10:56:57.827Z,4.82
2022-11-24T10:59:38.724Z,8.93
2022-11-24T11:02:36.651Z,8.90
2022-11-24T11:05:34.078Z,10.52
2022-11-24T11:08:19.828Z,5.93
2022-11-24T11:10:50.037Z,7.57
2022-11-24T11:13:28.268Z,8.73
2022-11-24T11:15:57.372Z,6.55
2022-11-24T11:18:32.871Z,9.90
2022-11-24T11:21:03.270Z,4.57
2022-11-24T11:23:36.229Z,7.32
2022-11-24T11:26:31.051Z,7.20
2022-11-24T11:34:51.536Z,8.93
2022-11-24T11:37:21.097Z,7.65
2022-11-24T11:39:52.757Z,6.25
2022-11-24T11:42:59.973Z,8.80
2022-11-24T11:45:17.604Z,6.80
2022-11-24T11:47:51.631Z,5.47
2022-11-24T11:50:26.565Z,5.22
2022-11-24T11:53:11.310Z,8.20
2022-11-24T11:55:56.655Z,6.63
2022-11-24T11:59:12.821Z,7.47
2022-11-24T12:02:12.310Z,5.22
2022-11-24T12:04:48.672Z,11.05
2022-11-24T12:07:45.471Z,6.90
2022-11-24T12:10:24.166Z,8.57
2022-11-24T12:13:08.076Z,5.88
2022-11-24T12:15:43.248Z,8.40
2022-11-24T12:18:56.553Z,12.50
2022-11-24T12:21:27.018Z,7.32
2022-11-24T12:24:06.105Z,14.10
2022-11-24T12:26:42.311Z,6.05
2022-11-24T12:29:38.899Z,5.45
2022-11-24T12:32:18.887Z,9.82
2022-11-24T12:34:54.651Z,9.25
2022-11-24T12:37:39.209Z,9.65
2022-11-24T12:40:15.692Z,10.30
2022-11-24T12:42:51.398Z,5.13
2022-11-24T12:45:25.963Z,8.18
2022-11-24T12:48:16.530Z,10.10
2022-11-24T12:50:46.856Z,8.52
2022-11-24T12:53:17.986Z,7.47
2022-11-24T12:55:47.197Z,4.93
2022-11-24T12:58:21.105Z,11.48
2022-11-24T13:01:12.967Z,7.47
2022-11-24T13:03:55.365Z,9.65
2022-11-24T13:06:29.201Z,13.77
2022-11-24T13:08:57.927Z,6.68
2022-11-24T13:11:42.072Z,9.43
2022-11-24T13:14:17.145Z,10.38
2022-11-24T13:19:53.398Z,13.82
2022-11-24T13:22:26.449Z,9.75
2022-11-24T13:25:14.356Z,11.65
2022-11-24T13:27:48.169Z,9.35
2022-11-24T13:30:50.569Z,5.38
2022-11-24T13:33:40.260Z,7.68
2022-11-24T13:36:30.481Z,8.60
2022-11-24T13:38:59.244Z,10.98
2022-11-24T13:42:07.148Z,8.35
2022-11-24T13:44:48.698Z,6.80
2022-11-24T13:47:35.195Z,9.30
2022-11-24T13:50:07.127Z,7.18
2022-11-24T13:52:50.233Z,6.57
2022-11-24T13:55:29.815Z,6.97
2022-11-24T13:58:01.515Z,5.35
2022-11-24T14:00:32.059Z,6.35
2022-11-24T14:03:04.633Z,6.35
2022-11-24T14:05:39.882Z,12.43
2022-11-24T14:08:17.108Z,8.00
2022-11-24T14:10:45.278Z,8.82
2022-11-24T14:13:27.094Z,7.40
2022-11-24T14:16:03.336Z,8.38
2022-11-24T14:18:31.770Z,8.25
2022-11-24T14:21:15.902Z,9.60
2022-11-24T14:23:47.166Z,8.10
2022-11-24T14:26:21.300Z,7.68
2022-11-24T14:28:50.464Z,8.95
2022-11-24T14:31:26.931Z,11.43
2022-11-24T14:34:14.932Z,8.02
2022-11-24T14:36:44.508Z,9.40
2022-11-24T14:39:14.492Z,9.70
2022-11-24T14:41:44.525Z,14.32
2022-11-24T14:44:19.692Z,10.50
2022-11-24T14:46:48.303Z,5.78
2022-11-24T14:49:22.234Z,2.97
2022-11-24T14:51:57.019Z,6.90
2022-11-24T14:54:25.789Z,5.10
2022-11-24T14:57:00.348Z,5.93
2022-11-24T14:59:30.570Z,3.92
2022-11-24T15:01:59.581Z,3.60
2022-11-24T15:07:22.867Z,6.80
2022-11-24T15:09:53.197Z,1.98
2022-11-24T15:12:30.485Z,5.75
2022-11-24T15:15:02.403Z,4.97
2022-11-24T15:17:31.788Z,10.07
2022-11-24T15:20:04.043Z,6.97
2022-11-24T15:22:39.438Z,8.55
2022-11-24T15:25:28.689Z,4.57
2022-11-24T15:27:57.168Z,9.60
2022-11-24T15:30:25.666Z,6.28
2022-11-24T15:32:54.745Z,8.10
2022-11-24T15:35:23.698Z,3.83
2022-11-24T15:37:53.630Z,4.10
2022-11-24T15:40:21.936Z,7.50
2022-11-24T15:42:53.097Z,2.72
2022-11-24T15:45:22.713Z,11.13
2022-11-24T15:47:50.861Z,6.47
2022-11-24T15:50:19.860Z,3.28
2022-11-24T15:52:49.357Z,5.88
2022-11-24T15:55:21.418Z,4.45
2022-11-24T15:57:49.769Z,4.97
2022-11-24T16:00:20.589Z,4.57
2022-11-24T16:02:48.818Z,5.93
2022-11-24T16:05:18.598Z,4.95
2022-11-24T16:07:46.781Z,6.93
2022-11-24T16:10:24.747Z,2.67
2022-11-24T16:12:52.832Z,3.67
2022-11-24T16:15:21.260Z,6.97
2022-11-24T16:17:52.810Z,5.30
2022-11-24T16:20:21.028Z,10.93
2022-11-24T16:22:49.045Z,8.85
2022-11-24T16:25:17.192Z,5.97
2022-11-24T16:27:46.537Z,6.53
2022-11-24T16:30:14.996Z,6.38
2022-11-24T16:32:43.046Z,10.38
2022-11-24T16:35:11.169Z,8.82
2022-11-24T16:37:39.217Z,8.90
2022-11-24T16:40:08.465Z,8.93
2022-11-24T16:42:36.506Z,9.07
2022-11-24T16:45:06.469Z,8.70
2022-11-24T16:47:40.616Z,13.45
2022-11-24T16:50:10.271Z,6.75
2022-11-24T16:52:38.804Z,10.13
2022-11-24T16:55:09.579Z,8.77
2022-11-24T16:57:37.796Z,8.85
2022-11-24T17:00:08.732Z,8.15
2022-11-24T17:02:37.027Z,9.45
2022-11-24T17:05:05.413Z,9.60
2022-11-24T17:07:34.483Z,11.55
2022-11-24T17:10:02.532Z,9.18
2022-11-24T17:12:30.522Z,7.95
2022-11-24T17:15:30.383Z,11.35
2022-11-24T17:18:16.387Z,12.13
2022-11-24T17:20:36.688Z,11.35
2022-11-24T17:23:04.805Z,15.98
2022-11-24T17:25:33.612Z,9.43
2022-11-24T17:28:01.605Z,8.93
2022-11-24T17:30:29.622Z,11.90
2022-11-24T17:32:59.389Z,11.00
2022-11-24T17:35:27.366Z,10.63
2022-11-24T17:37:56.973Z,15.73
2022-11-24T17:40:29.352Z,12.88
2022-11-24T17:42:59.953Z,12.45
2022-11-24T17:45:28.820Z,11.00
2022-11-24T17:47:57.114Z,9.80
2022-11-24T17:50:26.760Z,7.85
2022-11-24T17:52:54.992Z,10.50
2022-11-24T17:55:23.041Z,6.65
2022-11-24T17:57:51.055Z,9.57
2022-11-24T18:00:19.826Z,10.82
2022-11-24T18:02:47.855Z,10.07
2022-11-24T18:05:16.290Z,12.88
2022-11-24T18:07:45.713Z,11.32
2022-11-24T18:10:13.757Z,8.65
2022-11-24T18:12:41.866Z,13.45
2022-11-24T18:15:10.622Z,11.13
2022-11-24T18:17:39.670Z,15.32
2022-11-24T18:20:09.138Z,12.00
2022-11-24T18:23:04.146Z,8.20
2022-11-24T18:25:27.095Z,14.07
2022-11-24T18:27:55.189Z,10.32
2022-11-24T18:30:23.237Z,7.97
2022-11-24T18:32:51.247Z,13.75
2022-11-24T18:35:19.358Z,12.15
2022-11-24T18:37:47.364Z,40.30
2022-11-24T18:40:15.759Z,20.08
2022-11-24T18:42:45.198Z,19.30
2022-11-24T18:45:13.262Z,23.25
2022-11-24T18:47:41.262Z,18.38
2022-11-24T18:50:10.581Z,17.35
2022-11-24T18:52:38.675Z,17.95
2022-11-24T18:55:07.533Z,19.15
2022-11-24T18:57:35.539Z,22.08
2022-11-24T19:00:06.295Z,21.15
2022-11-24T19:02:34.397Z,23.40
2022-11-24T19:05:02.980Z,32.67
2022-11-24T19:07:31.182Z,30.00
2022-11-24T19:09:59.311Z,30.00
2022-11-24T19:12:27.389Z,27.33
2022-11-24T19:14:55.624Z,21.10
2022-11-24T19:17:24.983Z,26.50
2022-11-24T19:19:53.320Z,18.30
2022-11-24T19:22:21.785Z,20.60
2022-11-24T19:24:50.713Z,16.10
2022-11-24T19:27:21.029Z,13.13
2022-11-24T19:29:49.335Z,18.98
2022-11-24T19:32:19.386Z,14.18
2022-11-24T19:34:48.822Z,12.77
2022-11-24T19:37:17.018Z,11.48
2022-11-24T19:39:45.009Z,12.55
2022-11-24T19:42:13.042Z,14.65
2022-11-24T19:44:41.030Z,10.60
2022-11-24T19:47:09.204Z,12.80
2022-11-24T19:49:37.355Z,13.00
2022-11-24T19:52:06.891Z,15.75
2022-11-24T19:54:35.637Z,9.73
2022-11-24T19:57:03.941Z,9.38
2022-11-24T19:59:32.060Z,18.33
2022-11-24T20:02:01.732Z,11.63
2022-11-24T20:04:30.220Z,6.60
2022-11-24T20:06:58.460Z,13.27
2022-11-24T20:09:28.444Z,10.82
2022-11-24T20:11:56.640Z,13.63
2022-11-24T20:14:24.733Z,14.60
2022-11-24T20:16:52.926Z,16.25
2022-11-24T20:19:21.104Z,13.55
2022-11-24T20:21:50.185Z,12.98
2022-11-24T20:24:21.363Z,10.63
2022-11-24T20:26:53.422Z,16.35
2022-11-24T20:29:21.789Z,17.42
2022-11-24T20:31:51.751Z,9.18
2022-11-24T20:34:20.306Z,14.60
2022-11-24T20:36:49.598Z,11.93
2022-11-24T20:39:19.841Z,14.77
2022-11-24T20:41:48.281Z,12.65
2022-11-24T20:44:19.413Z,10.40
2022-11-24T20:46:47.675Z,15.68
2022-11-24T20:49:17.683Z,21.07
2022-11-24T20:51:47.696Z,15.90
2022-11-24T20:54:17.274Z,17.90
2022-11-24T20:56:46.341Z,16.38
2022-11-24T20:59:17.791Z,23.02
2022-11-24T21:01:47.693Z,19.95
2022-11-24T21:04:19.367Z,19.88
2022-11-24T21:06:47.904Z,22.70
2022-11-24T21:09:16.153Z,24.35
2022-11-24T21:11:44.603Z,22.73
2022-11-24T21:14:12.609Z,17.67
2022-11-24T21:16:42.996Z,26.87
2022-11-24T21:19:13.769Z,30.25
2022-11-24T21:21:42.888Z,28.30
2022-11-24T21:24:13.237Z,32.92
2022-11-24T21:26:42.383Z,35.25
2022-11-24T21:29:12.943Z,30.07
2022-11-24T21:31:42.740Z,29.92
2022-11-24T21:34:15.002Z,22.90
2022-11-24T21:36:44.834Z,25.92
2022-11-24T21:39:14.119Z,25.17
2022-11-24T21:41:43.143Z,27.70
2022-11-24T21:44:12.709Z,25.40
2022-11-24T21:46:46.187Z,28.53
2022-11-24T21:49:17.499Z,24.37
2022-11-24T21:51:45.629Z,26.30
2022-11-24T21:54:13.738Z,28.53
2022-11-24T21:56:41.704Z,33.53
2022-11-24T21:59:09.831Z,34.80
2022-11-24T22:01:37.835Z,26.17
2022-11-24T22:04:07.298Z,32.57
2022-11-24T22:06:35.300Z,36.60
2022-11-24T22:09:03.297Z,33.70
2022-11-24T22:11:31.270Z,29.00
2022-11-24T22:13:59.276Z,28.70
2022-11-24T22:16:27.435Z,31.40
2022-11-24T22:18:55.544Z,26.83
2022-11-24T22:21:29.827Z,27.63
2022-11-24T22:23:57.955Z,27.50
2022-11-24T22:26:27.125Z,24.47
2022-11-24T22:28:56.066Z,23.03
2022-11-24T22:31:25.975Z,19.70
2022-11-24T22:33:55.675Z,24.63
2022-11-24T22:36:27.135Z,18.53
2022-11-24T22:38:56.622Z,23.57
2022-11-24T22:41:25.410Z,19.07
2022-11-24T22:43:54.437Z,18.27
2022-11-24T22:46:24.296Z,26.40
2022-11-24T22:48:53.841Z,21.50
2022-11-24T22:51:25.044Z,18.00
2022-11-24T22:53:54.689Z,18.83
2022-11-24T22:56:23.673Z,22.07
2022-11-24T22:58:52.233Z,19.30
2022-11-24T23:01:21.573Z,19.70
2022-11-24T23:03:50.004Z,16.73
2022-11-24T23:06:20.381Z,23.33
2022-11-24T23:08:50.454Z,22.03
2022-11-24T23:11:21.327Z,15.10
2022-11-24T23:13:54.079Z,17.87
2022-11-24T23:16:22.799Z,17.47
2022-11-24T23:18:53.958Z,16.67
2022-11-24T23:21:24.492Z,20.97
2022-11-24T23:23:54.592Z,15.43
2022-11-24T23:26:24.361Z,20.13
2022-11-24T23:28:52.723Z,15.53
2022-11-24T23:31:24.002Z,21.73
2022-11-24T23:33:52.122Z,15.90
2022-11-24T23:36:21.451Z,17.87
2022-11-24T23:38:49.797Z,22.13
2022-11-24T23:41:21.673Z,20.73
2022-11-24T23:43:49.740Z,15.30
2022-11-24T23:46:20.329Z,19.90
2022-11-24T23:48:49.050Z,16.97
2022-11-24T23:51:18.561Z,18.87
2022-11-24T23:53:47.280Z,16.30
2022-11-24T23:56:17.171Z,24.37
2022-11-24T23:58:46.793Z,14.33
